Williamsburg, Iowa
Current Conditions -  °F | °C
As of 11:52 PM on Saturday 25 Oct 2014 (Local Time) from KCID Reporting Station
Clear Clear  
Wind Chill:   Ceiling: Unl
Heat Index:   Visibility: 10mi
Dew Point:   Wind: 6mph
Humidity: 63%   Direction: 320°NW
Pressure: 30.05"   Gusts: NA
Location:  41.66°N, 92.01°W
Report Text: KCID 260452Z AUTO 32005KT 10SM CLR 08/02 A3005 RMK AO2 SLP176 T00830017
Loading
Personal Weather Stations






























Interactive Weather Map
Tropical Storm Tracking
New forecast layout! Learn more

10-Day Weather Forecast

Advertisements
Track Severe Weather on mobile